Gorham, Maine
Current Conditions -  °F | °C
As of 12:51 PM on Saturday 20 Dec 2014 (Local Time) from KPWM Reporting Station
Few Clouds Few Clouds  
Wind Chill: 33°   Ceiling: Unl
Heat Index: 33°   Visibility: 10mi
Dew Point: 21°   Wind: 3mph
Humidity: 61%   Direction: NA
Pressure: 30.3"   Gusts: NA
Location:  43.68°N, 70.45°W
Report Text: KPWM 201751Z VRB03KT 10SM FEW018 01/M06 A3030 RMK AO2 SLP260 T00061061 10006 21039 56015
Loading
Personal Weather Stations






























Interactive Weather Map New forecast layout! Learn more

10-Day Weather Forecast

Advertisements
Track Severe Weather on mobile